createdAt,value
2022-09-16T15:57:05.224Z,80.4
2022-09-16T15:58:09.695Z,70.9
2022-09-16T15:59:12.549Z,70.5
2022-09-16T16:00:15.698Z,71.6
2022-09-16T16:01:19.003Z,70.7
2022-09-16T16:02:22.742Z,71.2
2022-09-16T16:03:26.116Z,71.8
2022-09-16T16:04:28.632Z,71.5
2022-09-16T16:05:32.094Z,73
2022-09-16T16:06:34.534Z,73
2022-09-16T16:07:37.051Z,73.2
2022-09-16T16:08:39.755Z,72.7
2022-09-16T16:09:42.689Z,73.3
2022-09-16T16:10:46.118Z,73.8
2022-09-16T16:11:49.560Z,74.1
2022-09-16T16:12:52.854Z,74.8
2022-09-16T16:14:03.482Z,75.4
2022-09-16T16:15:07.024Z,76
2022-09-16T16:16:11.454Z,76.7
2022-09-16T16:17:16.100Z,76.5
2022-09-16T16:18:19.368Z,77.1
2022-09-16T16:19:22.445Z,76.6
2022-09-16T16:20:25.902Z,77.5
2022-09-16T16:21:28.781Z,77.1
2022-09-16T16:22:33.488Z,77.3
2022-09-16T16:23:37.267Z,76.4
2022-09-16T16:24:40.459Z,76.2
2022-09-16T16:25:42.894Z,76.6
2022-09-16T16:26:45.692Z,77.4
2022-09-16T16:27:48.404Z,77.3
2022-09-16T16:28:52.256Z,76.9
2022-09-16T16:29:56.928Z,77.7
2022-09-16T16:30:59.984Z,77.8
2022-09-16T16:32:03.514Z,77.7
2022-09-16T16:33:06.039Z,77.5
2022-09-16T16:34:09.770Z,77.7
2022-09-16T16:35:12.474Z,77.1
2022-09-16T16:36:15.614Z,77.9
2022-09-16T16:37:48.483Z,78
2022-09-16T16:38:52.419Z,78.6
2022-09-16T16:39:56.062Z,78.7
2022-09-16T16:40:59.446Z,79.6
2022-09-16T16:42:02.406Z,80.5
2022-09-16T16:43:05.475Z,80.3
2022-09-16T16:44:09.836Z,80.7
2022-09-16T16:45:14.082Z,80.8
2022-09-16T16:46:17.120Z,81
2022-09-16T16:47:20.099Z,81.7
2022-09-16T16:48:23.831Z,81.5
2022-09-16T16:49:26.717Z,82
2022-09-16T16:50:30.090Z,82
2022-09-16T16:51:34.332Z,81.5
2022-09-16T16:52:37.330Z,81.7
2022-09-16T16:53:39.934Z,82.3
2022-09-16T16:54:42.732Z,82.9
2022-09-16T16:55:45.996Z,83.3
2022-09-16T16:56:48.710Z,82.8
2022-09-16T16:57:51.890Z,82
2022-09-16T16:58:54.774Z,82.9
2022-09-16T16:59:58.975Z,83.6
2022-09-16T17:01:03.223Z,83.4
2022-09-16T17:02:06.460Z,83.9
2022-09-16T17:03:09.525Z,83.1
2022-09-16T17:04:13.567Z,83.3
2022-09-16T17:05:17.165Z,82.7
2022-09-16T17:06:20.741Z,83.2
2022-09-16T17:07:29.577Z,83.4
2022-09-16T17:08:33.980Z,83.4
2022-09-16T17:09:38.061Z,84.1
2022-09-16T17:10:41.314Z,84.2
2022-09-16T17:11:44.468Z,84.8
2022-09-16T17:12:47.467Z,84.2
2022-09-16T17:13:50.615Z,85.2
2022-09-16T17:14:53.775Z,85.2
2022-09-16T17:15:57.709Z,84.6
2022-09-16T17:17:02.407Z,85
2022-09-16T17:18:05.210Z,85.4
2022-09-16T17:19:07.921Z,85.1
2022-09-16T17:20:11.060Z,85.6
2022-09-16T17:21:14.201Z,85.3
2022-09-16T17:22:17.206Z,84.7
2022-09-16T17:23:19.605Z,85.2
2022-09-16T17:24:22.127Z,84.6
2022-09-16T17:25:25.194Z,84.1
2022-09-16T17:26:28.181Z,84.7
2022-09-16T17:27:31.645Z,85
2022-09-16T17:28:34.721Z,84.7
2022-09-16T17:29:36.963Z,85.6
2022-09-16T17:30:40.899Z,85.5
2022-09-16T17:31:44.477Z,85
2022-09-16T17:32:48.363Z,85.9
2022-09-16T17:33:51.060Z,85.7
2022-09-16T17:34:54.242Z,85.9
2022-09-16T17:35:57.052Z,86.3
2022-09-16T17:37:00.496Z,86.6
2022-09-16T17:38:07.909Z,86.2
2022-09-16T17:39:11.010Z,85.9
2022-09-16T17:40:14.149Z,86.1
2022-09-16T17:41:16.730Z,86.8
2022-09-16T17:42:19.516Z,86.1
2022-09-16T17:43:22.318Z,85.4
2022-09-16T17:44:25.203Z,85.4
2022-09-16T17:45:28.965Z,85.4
2022-09-16T17:46:32.191Z,85.9
2022-09-16T17:47:36.844Z,86.2
2022-09-16T17:48:41.079Z,86.7
2022-09-16T17:49:43.313Z,86.7
2022-09-16T17:50:46.264Z,86.5
2022-09-16T17:51:48.700Z,86.1
2022-09-16T17:52:51.765Z,86.5
2022-09-16T17:53:54.558Z,86.5
2022-09-16T17:54:57.626Z,86.3
2022-09-16T17:56:00.143Z,86.4
2022-09-16T17:57:03.113Z,87.3
2022-09-16T17:58:06.188Z,86.8
2022-09-16T17:59:08.924Z,87.2
2022-09-16T18:00:11.904Z,86.8
2022-09-16T18:01:15.067Z,86.5
2022-09-16T18:02:17.851Z,86.4
2022-09-16T18:03:21.997Z,86
2022-09-16T18:04:26.400Z,86.1
2022-09-16T18:05:31.584Z,86.9
2022-09-16T18:06:35.152Z,87.4
2022-09-16T18:07:37.660Z,87.3
2022-09-16T18:08:40.175Z,87.1
2022-09-16T18:09:43.353Z,87
2022-09-16T18:10:46.669Z,87.2
2022-09-16T18:11:50.162Z,87.7
2022-09-16T18:12:53.219Z,87.5
2022-09-16T18:13:56.481Z,87.8
2022-09-16T18:14:59.950Z,87.7
2022-09-16T18:16:03.361Z,87.4
2022-09-16T18:17:06.551Z,87.8
2022-09-16T18:18:10.061Z,87.7
2022-09-16T18:19:13.616Z,87.9
2022-09-16T18:20:18.058Z,87.9
2022-09-16T18:21:21.121Z,87.6
2022-09-16T18:22:24.295Z,87.7
2022-09-16T18:23:27.166Z,88.2
2022-09-16T18:24:30.586Z,87.9
2022-09-16T18:25:33.528Z,88.6
2022-09-16T18:26:36.895Z,88.2
2022-09-16T18:27:45.134Z,88.2
2022-09-16T18:29:12.812Z,88
2022-09-16T18:30:15.967Z,88.5
2022-09-16T18:31:19.567Z,89.1
2022-09-16T18:32:23.214Z,89
2022-09-16T18:33:26.013Z,88.7
2022-09-16T18:34:35.169Z,88.7
2022-09-16T18:35:39.096Z,88.9
2022-09-16T18:36:41.984Z,89.2
2022-09-16T18:37:44.977Z,88.9
2022-09-16T18:38:47.927Z,89.4
2022-09-16T18:39:51.315Z,89.5
2022-09-16T18:40:54.662Z,89
2022-09-16T18:41:57.831Z,89
2022-09-16T18:43:00.414Z,89
2022-09-16T18:44:03.608Z,89.2
2022-09-16T18:45:06.150Z,89.4
2022-09-16T18:46:09.295Z,89.6
2022-09-16T18:47:12.033Z,89.6
2022-09-16T18:48:14.902Z,89.7
2022-09-16T18:49:18.359Z,89.4
2022-09-16T18:50:22.000Z,89.3
2022-09-16T18:51:26.456Z,89.3
2022-09-16T18:52:29.925Z,89.3
2022-09-16T18:53:32.548Z,89.1
2022-09-16T18:54:36.281Z,89.1
2022-09-16T18:55:38.722Z,89.2
2022-09-16T18:56:42.154Z,88.9
2022-09-16T18:57:44.971Z,89.1
2022-09-16T18:59:24.202Z,89
2022-09-16T19:00:28.710Z,89.3
2022-09-16T19:01:32.250Z,89.5
2022-09-16T19:02:35.596Z,89.4
2022-09-16T19:03:38.566Z,89.5
2022-09-16T19:04:41.641Z,89.8
2022-09-16T19:05:45.776Z,89.7
2022-09-16T19:06:49.379Z,89.5
2022-09-16T19:07:52.482Z,89
2022-09-16T19:08:55.739Z,88.7
2022-09-16T19:09:59.007Z,88.5
2022-09-16T19:11:01.902Z,88.6
2022-09-16T19:12:04.715Z,88.7
2022-09-16T19:13:07.611Z,88.5
2022-09-16T19:14:09.932Z,89
2022-09-16T19:15:12.648Z,89.1
2022-09-16T19:16:14.809Z,88.9
2022-09-16T19:17:18.241Z,88.3
2022-09-16T19:18:21.252Z,88.1
2022-09-16T19:19:23.977Z,88.4
2022-09-16T19:20:27.127Z,88.5
2022-09-16T19:21:30.967Z,88.8
2022-09-16T19:22:35.415Z,88.9
2022-09-16T19:23:39.063Z,89.1
2022-09-16T19:24:41.763Z,88.9
2022-09-16T19:25:44.863Z,88.8
2022-09-16T19:26:47.582Z,89.2
2022-09-16T19:27:50.190Z,88.9
2022-09-16T19:28:52.704Z,89
2022-09-16T19:29:55.844Z,89.1
2022-09-16T19:30:59.084Z,88.9
2022-09-16T19:32:02.567Z,88.9
2022-09-16T19:33:05.644Z,88.4
2022-09-16T19:34:08.089Z,89
2022-09-16T19:35:11.725Z,88.9
2022-09-16T19:36:14.867Z,88.9
2022-09-16T19:37:18.216Z,89.2
2022-09-16T19:38:22.484Z,89.5
2022-09-16T19:39:25.373Z,89.2
2022-09-16T19:40:28.755Z,88.8
2022-09-16T19:41:32.469Z,88.7
2022-09-16T19:42:35.900Z,88.7
2022-09-16T19:43:38.998Z,88.6
2022-09-16T19:44:42.084Z,88.9
2022-09-16T19:45:45.534Z,88.5
2022-09-16T19:46:49.219Z,88.3
2022-09-16T19:47:52.768Z,88.4
2022-09-16T19:48:55.926Z,88.2
2022-09-16T19:49:59.361Z,88.7
2022-09-16T19:51:02.784Z,88.9
2022-09-16T19:52:05.661Z,89.3
2022-09-16T19:53:09.332Z,89.1
2022-09-16T19:54:13.566Z,88.7
2022-09-16T19:55:16.726Z,89.1
2022-09-16T19:56:19.520Z,89.4
2022-09-16T19:57:23.165Z,89.3
2022-09-16T19:58:26.540Z,89.1
2022-09-16T19:59:29.604Z,89.5
2022-09-16T20:00:57.590Z,89.5
2022-09-16T20:02:01.677Z,89.2
2022-09-16T20:03:04.853Z,89.6
2022-09-16T20:04:07.761Z,89.6
2022-09-16T20:05:10.735Z,89.7
2022-09-16T20:06:14.181Z,89.2
2022-09-16T20:07:17.184Z,89.4
2022-09-16T20:08:21.342Z,89.3
2022-09-16T20:09:25.518Z,89.3
2022-09-16T20:10:28.589Z,89.8
2022-09-16T20:11:31.674Z,89.8
2022-09-16T20:12:35.478Z,89.8
2022-09-16T20:13:38.912Z,89.9
2022-09-16T20:14:42.280Z,89.9
2022-09-16T20:15:45.162Z,89.7
2022-09-16T20:16:48.761Z,89.9
2022-09-16T20:17:52.418Z,89.9
2022-09-16T20:18:55.549Z,90
2022-09-16T20:19:58.689Z,89.6
2022-09-16T20:21:01.789Z,89.1
2022-09-16T20:22:05.543Z,89.1
2022-09-16T20:23:09.029Z,89.7
2022-09-16T20:24:13.208Z,89.7
2022-09-16T20:25:24.598Z,89.3
2022-09-16T20:26:27.108Z,89.5
2022-09-16T20:27:30.552Z,89.5
2022-09-16T20:28:33.199Z,89.6
2022-09-16T20:29:35.987Z,89.1
2022-09-16T20:30:38.579Z,89
2022-09-16T20:31:41.846Z,89.6
2022-09-16T20:32:44.914Z,89.2
2022-09-16T20:33:48.633Z,89.2
2022-09-16T20:34:51.426Z,89.2
2022-09-16T20:35:54.327Z,89.2
2022-09-16T20:36:57.679Z,89.4
2022-09-16T20:38:00.387Z,89.3
2022-09-16T20:39:03.574Z,89.5
2022-09-16T20:40:07.266Z,90
2022-09-16T20:41:11.842Z,89.7
2022-09-16T20:42:15.222Z,89.3
2022-09-16T20:43:18.099Z,89.7
2022-09-16T20:44:21.178Z,89.5
2022-09-16T20:45:24.557Z,89.6
2022-09-16T20:46:28.163Z,89.5
2022-09-16T20:47:30.755Z,89.4
2022-09-16T20:48:33.620Z,89.5
2022-09-16T20:49:37.052Z,89.4
2022-09-16T20:50:40.552Z,88.9
2022-09-16T20:51:43.449Z,88.9
2022-09-16T20:52:46.886Z,88.5
2022-09-16T20:53:49.439Z,88.9
2022-09-16T20:54:52.974Z,89.2
2022-09-16T20:55:56.235Z,89.1
2022-09-16T20:57:00.413Z,89.2
2022-09-16T20:58:02.739Z,88.8
2022-09-16T20:59:05.309Z,89.5
2022-09-16T21:00:08.900Z,89.8
2022-09-16T21:01:12.503Z,89.9
2022-09-16T21:02:16.188Z,89.7
2022-09-16T21:03:19.566Z,90
2022-09-16T21:04:22.004Z,90
2022-09-16T21:05:25.077Z,90
2022-09-16T21:06:28.465Z,89.9
2022-09-16T21:07:31.735Z,90.2
2022-09-16T21:08:35.754Z,90.3
2022-09-16T21:09:38.819Z,90.6
2022-09-16T21:10:41.979Z,91
2022-09-16T21:11:46.015Z,91
2022-09-16T21:12:50.040Z,90.4
2022-09-16T21:13:52.828Z,90.6
2022-09-16T21:14:55.898Z,90.5
2022-09-16T21:15:59.023Z,90.7
2022-09-16T21:17:01.988Z,90.5
2022-09-16T21:18:04.613Z,90.7
2022-09-16T21:19:06.773Z,90.9
2022-09-16T21:20:09.632Z,90.8
2022-09-16T21:21:12.976Z,90.5
2022-09-16T21:22:16.975Z,90.5
2022-09-16T21:23:19.483Z,90.6
2022-09-16T21:24:22.729Z,90.5
2022-09-16T21:25:26.174Z,90.6
2022-09-16T21:26:29.520Z,90.4
2022-09-16T21:27:33.364Z,90.4
2022-09-16T21:28:37.325Z,90.5
2022-09-16T21:29:40.475Z,90.5
2022-09-16T21:30:43.923Z,90.7
2022-09-16T21:31:47.260Z,90.7
2022-09-16T21:32:49.677Z,90.7
2022-09-16T21:33:52.766Z,90.7
2022-09-16T21:34:55.919Z,90.9
2022-09-16T21:35:58.155Z,91.1
2022-09-16T21:37:01.673Z,91.1
2022-09-16T21:38:04.829Z,90.6
2022-09-16T21:39:07.626Z,90.6
2022-09-16T21:40:11.677Z,90.8
2022-09-16T21:41:14.998Z,91.2
2022-09-16T21:42:18.173Z,91.2
2022-09-16T21:43:36.720Z,90.8
2022-09-16T21:44:42.265Z,90.5
2022-09-16T21:45:45.342Z,89.7
2022-09-16T21:46:49.117Z,90.4
2022-09-16T21:47:52.123Z,91.1
2022-09-16T21:48:55.098Z,91.3
2022-09-16T21:49:59.177Z,91.6
2022-09-16T21:51:02.943Z,91
2022-09-16T21:52:05.938Z,90.9
2022-09-16T21:53:08.829Z,90.8
2022-09-16T21:54:11.478Z,91.1
2022-09-16T21:55:18.529Z,91.6
2022-09-16T21:56:21.242Z,91.5
2022-09-16T21:57:24.693Z,91.6
2022-09-16T21:58:28.285Z,91.3
2022-09-16T21:59:32.237Z,91.1
2022-09-16T22:00:36.890Z,91.5
2022-09-16T22:01:39.701Z,91.3
2022-09-16T22:02:43.577Z,91.2
2022-09-16T22:03:46.292Z,91.4
2022-09-16T22:04:49.628Z,91.5
2022-09-16T22:05:52.991Z,91.4
2022-09-16T22:06:55.802Z,91.3
2022-09-16T22:07:58.332Z,91.4
2022-09-16T22:09:02.552Z,91.3
2022-09-16T22:10:06.225Z,91.4
2022-09-16T22:11:09.500Z,91.1
2022-09-16T22:12:12.952Z,91.6
2022-09-16T22:13:15.550Z,91.8
2022-09-16T22:14:18.525Z,91.9
2022-09-16T22:15:22.458Z,91.6
2022-09-16T22:16:27.609Z,91.2
2022-09-16T22:17:31.429Z,91.3
2022-09-16T22:18:34.850Z,91.5
2022-09-16T22:19:38.027Z,91.7
2022-09-16T22:20:42.155Z,91.7
2022-09-16T22:21:45.307Z,91.8
2022-09-16T22:22:47.848Z,91.6
2022-09-16T22:23:50.088Z,91.6
2022-09-16T22:24:52.901Z,91.4
2022-09-16T22:25:55.959Z,91.3
2022-09-16T22:26:59.123Z,91.2
2022-09-16T22:28:02.214Z,91.3
2022-09-16T22:29:05.962Z,91.1
2022-09-16T22:30:09.538Z,91.2
2022-09-16T22:31:12.993Z,91.1
2022-09-16T22:32:17.933Z,91.1
2022-09-16T22:33:20.999Z,91.2
2022-09-16T22:34:24.221Z,91.3
2022-09-16T22:35:26.839Z,91.1
2022-09-16T22:36:30.277Z,91.4
2022-09-16T22:37:33.548Z,91.3
2022-09-16T22:38:37.107Z,91.4
2022-09-16T22:39:40.593Z,91.4
2022-09-16T22:40:42.739Z,91.5
2022-09-16T22:41:47.086Z,91.6
2022-09-16T22:42:50.802Z,91.5
2022-09-16T22:43:53.692Z,91.4
2022-09-16T22:44:56.875Z,91.4
2022-09-16T22:46:00.139Z,91.4
2022-09-16T22:47:03.650Z,91.5
2022-09-16T22:48:07.927Z,91.4
2022-09-16T22:49:10.516Z,91.2
2022-09-16T22:50:14.056Z,91.2
2022-09-16T22:51:17.276Z,91.3
2022-09-16T22:52:20.022Z,91.3
2022-09-16T22:53:22.876Z,91.1
2022-09-16T22:54:26.502Z,91
2022-09-16T22:55:29.571Z,91
2022-09-16T22:56:32.946Z,90.9
2022-09-16T22:57:36.414Z,90.8
2022-09-16T22:58:39.212Z,91
2022-09-16T22:59:42.275Z,90.9
2022-09-16T23:00:45.888Z,91.1
2022-09-16T23:01:49.931Z,91.1
2022-09-16T23:02:53.496Z,91
2022-09-16T23:03:59.119Z,91
2022-09-16T23:05:02.224Z,90.8
2022-09-16T23:06:05.138Z,90.7
2022-09-16T23:07:07.952Z,90.8
2022-09-16T23:08:10.609Z,91.1
2022-09-16T23:09:14.070Z,91
2022-09-16T23:10:17.081Z,91.1
2022-09-16T23:11:20.243Z,90.8
2022-09-16T23:12:23.681Z,90.8
2022-09-16T23:13:27.583Z,90.9
2022-09-16T23:14:30.954Z,90.6
2022-09-16T23:15:34.324Z,90.7
2022-09-16T23:16:37.873Z,90.5
2022-09-16T23:17:41.326Z,90.5
2022-09-16T23:18:44.095Z,90.8
2022-09-16T23:19:48.395Z,90.7
2022-09-16T23:20:50.914Z,90.7
2022-09-16T23:21:54.032Z,90.7
2022-09-16T23:22:57.072Z,90.6
2022-09-16T23:24:00.069Z,90.6
2022-09-16T23:25:02.860Z,90.8
2022-09-16T23:26:06.082Z,90.9
2022-09-16T23:27:08.790Z,91
2022-09-16T23:28:10.957Z,90.9
2022-09-16T23:29:14.032Z,90.7
2022-09-16T23:30:16.833Z,90.4
2022-09-16T23:31:20.357Z,90.2
2022-09-16T23:32:23.415Z,90.5
2022-09-16T23:33:27.007Z,90.9
2022-09-16T23:34:29.961Z,91
2022-09-16T23:35:34.716Z,90.6
2022-09-16T23:36:38.291Z,90.6
2022-09-16T23:37:41.160Z,90.7
2022-09-16T23:38:44.602Z,90.8
2022-09-16T23:39:47.782Z,90.8
2022-09-16T23:40:50.838Z,90.7
2022-09-16T23:41:52.987Z,90.5
2022-09-16T23:42:55.431Z,90.2
2022-09-16T23:43:58.611Z,90.2
2022-09-16T23:45:01.206Z,90.1
2022-09-16T23:46:04.176Z,90.2
2022-09-16T23:47:07.111Z,90.2
2022-09-16T23:48:09.615Z,90.5
2022-09-16T23:49:12.556Z,90.7
2022-09-16T23:50:14.938Z,90.9
2022-09-16T23:51:18.937Z,90.7
2022-09-16T23:52:22.389Z,90.6
2022-09-16T23:53:24.993Z,90.3
2022-09-16T23:54:27.843Z,90.3
2022-09-16T23:55:31.631Z,90.1
2022-09-16T23:56:34.350Z,89.9
2022-09-16T23:57:36.784Z,89.8
2022-09-16T23:58:39.876Z,89.9
2022-09-16T23:59:42.873Z,89.9
